Terminal Aerodrome Forecast
Issued by NWS

Home | Current Version | Previous Version | Text Only | Print | Product List | Glossary On
Versions: 1 2 3 4 5 6 7 8 9 10 11 12 13 14 15
000
FTUS43 KFGF 042300
TAFBJI
TAF
KBJI 042332Z 0500/0524 31011KT P6SM SCT025
     FM050200 29008KT P6SM SKC
     FM051900 20013G20KT P6SM FEW250=

USA.gov is the U.S. government's official web portal to all federal, state and local government web resources and services.